Wed, 01 Dec 2021 15:39:56 UTC

Information for RPM xxhash-libs-0.8.0-1.eln103.s390x.rpm

ID22314333
Namexxhash-libs
Version0.8.0
Release1.eln103
Epoch
Archs390x
SummaryExtremely fast hash algorithm - library
DescriptionxxHash is an Extremely fast Hash algorithm, running at RAM speed limits. It successfully completes the SMHasher test suite which evaluates collision, dispersion and randomness qualities of hash functions. Code is highly portable, and hashes are identical on all platforms (little / big endian).
Build Time2020-07-28 07:18:05 GMT
Size33,921
f3a4db6862474ef5201ad2492ee06caa
LicenseBSD
Buildrooteln-build-21805374-1788690
Provides
libxxhash.so.0()(64bit)
xxhash-libs = 0.8.0-1.eln103
xxhash-libs(s390-64) = 0.8.0-1.eln103
Obsoletes No Obsoletes
Conflicts No Conflicts
Requires
libc.so.6()(64bit)
libc.so.6(GLIBC_2.2)(64bit)
libc.so.6(GLIBC_2.3.4)(64bit)
libc.so.6(GLIBC_2.4)(64bit)
rpmlib(CompressedFileNames) <= 3.0.4-1
rpmlib(FileDigests) <= 4.6.0-1
rpmlib(PayloadFilesHavePrefix) <= 4.0-1
rpmlib(PayloadIsZstd) <= 5.4.18-1
rtld(GNU_HASH)
Recommends No Recommends
Suggests No Suggests
Supplements No Supplements
Enhances No Enhances
Files
1 through 9 of 9
Name ascending sort Size
/usr/lib/.build-id0
/usr/lib/.build-id/af0
/usr/lib/.build-id/af/d81b76de1c42456931e4747d30c9563af185ae40
/usr/lib64/libxxhash.so.018
/usr/lib64/libxxhash.so.0.8.044,552
/usr/share/doc/xxhash-libs0
/usr/share/doc/xxhash-libs/README.md11,920
/usr/share/licenses/xxhash-libs0
/usr/share/licenses/xxhash-libs/LICENSE2,228
Component of
Page:
1 through 50 of 22009 >>>
Buildroot descending sort Created State
eln-build-24422526-2543722 2020-12-07 16:07:25 expired
eln-build-24422284-2543578 2020-12-07 15:48:48 expired
eln-build-24422282-2543578 2020-12-07 15:48:44 expired
eln-build-24422277-2543578 2020-12-07 15:48:11 expired
eln-build-24422245-2543529 2020-12-07 15:39:02 expired
eln-build-24422237-2543494 2020-12-07 15:36:49 expired
eln-build-24422188-2543364 2020-12-07 15:20:03 expired
eln-build-24422185-2543364 2020-12-07 15:20:01 expired
eln-build-24422182-2543364 2020-12-07 15:19:45 expired
eln-build-24422116-2543319 2020-12-07 15:15:51 expired
eln-build-24421910-2543208 2020-12-07 15:03:27 expired
eln-build-24421861-2543144 2020-12-07 14:56:29 expired
eln-build-24421825-2543084 2020-12-07 14:51:23 expired
eln-build-24421823-2543084 2020-12-07 14:51:21 expired
eln-build-24421817-2543084 2020-12-07 14:51:02 expired
eln-build-24421813-2543084 2020-12-07 14:50:41 expired
eln-build-24421810-2543084 2020-12-07 14:50:29 expired
eln-build-24421718-2542993 2020-12-07 14:41:41 expired
eln-build-24421636-2542882 2020-12-07 14:30:30 expired
eln-build-24421619-2542882 2020-12-07 14:30:12 expired
eln-build-24421618-2542882 2020-12-07 14:30:10 expired
eln-build-24421612-2542882 2020-12-07 14:30:03 expired
eln-build-24421611-2542882 2020-12-07 14:29:57 expired
eln-build-24421610-2542882 2020-12-07 14:29:55 expired
eln-build-24421602-2542882 2020-12-07 14:29:40 expired
eln-build-side-32479-24421562-2542850 2020-12-07 14:28:16 expired
eln-build-side-32479-24421319-2542711 2020-12-07 14:12:48 expired
eln-build-24421313-2542709 2020-12-07 14:11:55 expired
eln-build-24421261-2542709 2020-12-07 14:08:31 expired
eln-build-24421241-2542618 2020-12-07 13:59:45 expired
eln-build-24421234-2542564 2020-12-07 13:54:33 expired
eln-build-24421214-2542532 2020-12-07 13:49:29 expired
eln-build-24421208-2542532 2020-12-07 13:49:11 expired
eln-build-24421199-2542532 2020-12-07 13:48:51 expired
eln-build-24421194-2542532 2020-12-07 13:48:37 expired
eln-build-24421187-2542532 2020-12-07 13:48:18 expired
eln-build-24420714-2542376 2020-12-07 13:17:35 expired
eln-build-24420713-2542376 2020-12-07 13:17:31 expired
eln-build-24420711-2542376 2020-12-07 13:17:27 expired
eln-build-24420700-2542376 2020-12-07 13:17:03 expired
eln-build-24420698-2542376 2020-12-07 13:17:02 expired
eln-build-24420695-2542376 2020-12-07 13:16:45 expired
eln-build-24420690-2542376 2020-12-07 13:16:41 expired
eln-build-24420212-2542196 2020-12-07 12:49:02 expired
eln-build-24420205-2542196 2020-12-07 12:48:25 expired
eln-build-24420048-2541999 2020-12-07 12:19:51 expired
eln-build-24419995-2541999 2020-12-07 12:17:36 expired
eln-build-24419979-2541999 2020-12-07 12:17:29 expired
eln-build-24419973-2541999 2020-12-07 12:17:25 expired
eln-build-24419949-2541999 2020-12-07 12:17:03 expired